• Join FlightAware (Why Join?)
  • Login
  • US Flag 
04:45AM EST


 

Airport Tracker/Info


-or-


 

Live Flight TrackerFlight Track Log ✈ DAL6246 ✈ 09-May-2013 ✈ KLGA - KCHO

Flight Track Log - Related Links

Times and Time Zones

All times are in EDT time to prevent confusion due to time zone crossing. See the DAL6246 flight status page for this flight to view local times or setup timezone preferences in your user account.

Time Position Orientation Groundspeed Altitude Reporting Facility
EDT Latitude Longitude Course Direction KTS MPH feet Rate Location/Type
08:59PM 40.8000 -73.9000 333° Northwest 157 181 1,700  Level New York TRACON
09:00PM 40.8500 -73.9333 333° Northwest 206 237 4,000 2,500 Climbing New York TRACON
09:01PM 40.8833 -74.0000 303° West 263 303 6,700 2,850 Climbing New York TRACON
09:02PM 40.8500 -74.0833 242° Southwest 271 312 9,700 2,667 Climbing New York TRACON
09:03PM 40.8000 -74.2000 241° Southwest 306 352 12,300 1,952 Climbing New York TRACON
09:04PM 40.7500 -74.3000 237° Southwest 369 425 13,800 1,500 Climbing New York TRACON
09:05PM 40.6833 -74.4167 233° Southwest 384 442 15,300 1,168 Climbing New York TRACON
09:07PM 40.5597 -74.6664 237° Southwest 417 480 17,400 1,168 Climbing New York Center
09:08PM 40.4892 -74.7878 233° Southwest 417 480 18,900 1,475 Climbing New York Center
09:09PM 40.4181 -74.9092 232° Southwest 417 480 20,400 1,500 Climbing New York Center
09:10PM 40.3408 -75.0325 231° Southwest 432 497 21,900 1,500 Climbing New York Center
09:11PM 40.2697 -75.1558 233° Southwest 437 503 23,400 1,050 Climbing New York Center
09:12PM 40.1919 -75.2814 231° Southwest 437 503 24,000 303 Climbing New York Center
09:13PM 40.1122 -75.4039 230° Southwest 443 510 24,000 353 Level New York Center
09:14PM 40.0281 -75.5283 229° Southwest 455 524 24,700 900 Climbing New York Center
09:15PM 39.9419 -75.6444 226° Southwest 460 529 25,800 645 Climbing New York Center
09:16PM 39.8594 -75.7739 230° Southwest 460 529 26,000 101 Climbing New York Center
09:17PM 39.7706 -75.9025 228° Southwest 476 548 26,000  Level New York Center
09:18PM 39.6981 -76.0294 233° Southwest 470 541 26,000 -397 Level New York Center
09:19PM 39.6144 -76.1572 230° Southwest 466 536 25,200 -900 Descending Washington Center
09:20PM 39.5344 -76.2831 231° Southwest 459 528 24,200 -992 Descending Washington Center
09:21PM 39.4525 -76.4058 229° Southwest 454 522 23,200 -958 Descending Washington Center
09:22PM 39.3767 -76.5206 229° Southwest 454 522 22,300 -758 Descending Washington Center
09:22PM 39.3167 -76.6000 226° Southwest 437 503 22,000 -186 Descending Potomac TRACON
09:23PM 39.2500 -76.7333 237° Southwest 441 507 22,000  Level Potomac TRACON
09:24PM 39.1667 -76.8500 227° Southwest 433 498 22,000  Level Potomac TRACON
09:25PM 39.0833 -76.9667 227° Southwest 423 487 22,000 -298 Level Potomac TRACON
09:26PM 39.0000 -77.0833 227° Southwest 446 513 21,400 -744 Descending Potomac TRACON
09:27PM 38.9000 -77.1500 207° Southwest 475 547 20,500 -1,150 Descending Potomac TRACON
09:28PM 38.7833 -77.2167 204° Southwest 434 499 19,100 -1,667 Descending Potomac TRACON
09:30PM 38.6667 -77.2833 204° Southwest 388 447 17,000 -2,100 Descending Potomac TRACON
09:30PM 38.5833 -77.3500 212° Southwest 375 432 14,900 -2,132 Descending Potomac TRACON
09:31PM 38.5647 -77.3628 208° Southwest 400 460 14,300 -2,241 Descending Washington Center
09:32PM 38.5028 -77.4647 232° Southwest 375 432 11,800 -1,843 Descending Washington Center
09:33PM 38.4500 -77.6333 248° West 285 328 9,600 -1,461 Descending Potomac TRACON
09:34PM 38.4167 -77.7167 243° Southwest 264 304 8,100 -800 Descending Potomac TRACON
09:35PM 38.3833 -77.8000 243° Southwest 254 292 8,000 -50 Descending Potomac TRACON
09:36PM 38.3500 -77.8833 243° Southwest 266 306 8,000 -149 Level Potomac TRACON
09:37PM 38.3167 -77.9833 247° West 250 288 7,700 -810 Descending Potomac TRACON
09:38PM 38.3000 -78.0500 252° West 211 243 6,300 -1,370 Descending Potomac TRACON
09:39PM 38.3000 -78.1333 270° West 203 234 4,800 -1,486 Descending Potomac TRACON
09:40PM 38.2833 -78.1833 247° West 197 227 3,600 -947 Descending Potomac TRACON
09:41PM 38.2667 -78.2500 252° West 179 206 3,000 -429 Descending Potomac TRACON
09:42PM 38.2667 -78.3000 270° West 165 190 2,700 -150 Descending Potomac TRACON
09:43PM 38.2500 -78.3667 252° West 166 191 2,700  Level Potomac TRACON
09:44PM 38.2333 -78.4167 247° West 138 159 2,700 -316 Level Potomac TRACON
09:45PM 38.2000 -78.4167 180° South 133 153 2,100 -842 Descending Potomac TRACON
09:46PM 38.1667 -78.4333 201° Southwest 130 150 1,100 -750 Descending Potomac TRACON
09:47PM 38.1333 -78.4500 201° Southwest 129 148 600 -500 Descending Potomac TRACON
09:49PM 38.1386 -78.4529 337° Northwest  Level Estimated
09:56PM 38.1386 -78.4529 218° Southwest  Level Estimated
09:57PM 38.1386 -78.4529 218° Southwest  Level Estimated
09:58PM 38.1386 -78.4529 218° Southwest  Level Estimated
09:59PM 38.1386 -78.4529 218° Southwest  Level Estimated
10:00PM 38.1386 -78.4529 218° Southwest  Level Estimated
10:01PM 38.1386 -78.4529 218° Southwest  Level Estimated